Time;durP1;ratioP1;P1;durP2;ratioP2;P2;SDS_P1;SDS_P2;PMS_P1;PMS_P2;Temp;Humidity;BMP_temperature;BMP_pressure;BME280_temperature;BME280_humidity;BME280_pressure;Samples;Min_cycle;Max_cycle;Signal;HPM_P1;HPM_P2
2022/04/05 00:00:41;;;;;;;1.17;0.80;;;;;;;19.43;37.74;95654.72;10297594;28;20090;-58
2022/04/05 00:06:01;;;;;;;0.90;0.70;;;;;;;19.41;37.74;95654.28;10293116;28;20058;-58
2022/04/05 00:11:20;;;;;;;1.00;0.80;;;;;;;19.39;37.59;95643.06;10311814;28;20047;-58
2022/04/05 00:16:39;;;;;;;2.58;0.70;;;;;;;19.39;37.83;95640.34;10300144;28;20438;-58
2022/04/05 00:21:59;;;;;;;1.40;0.70;;;;;;;19.37;37.58;95631.81;10313080;28;20034;-58
2022/04/05 00:27:18;;;;;;;0.88;0.65;;;;;;;19.35;37.81;95626.00;10299493;28;20117;-57
2022/04/05 00:32:38;;;;;;;0.90;0.70;;;;;;;19.34;37.69;95608.22;10298462;28;20414;-58
2022/04/05 00:37:57;;;;;;;1.25;0.95;;;;;;;19.34;37.73;95608.22;10307108;28;20058;-59
2022/04/05 00:43:17;;;;;;;0.77;0.60;;;;;;;19.32;37.63;95613.19;10299781;28;20078;-58
2022/04/05 00:48:48;;;;;;;0.70;0.70;;;;;;;19.30;37.67;95610.81;10295184;28;20055;-56
2022/04/05 00:54:10;;;;;;;1.50;0.95;;;;;;;19.28;37.77;95606.91;10299933;28;20602;-58
2022/04/05 00:59:32;;;;;;;0.85;0.50;;;;;;;19.28;37.71;95605.00;10285243;28;20054;-58
2022/04/05 01:04:52;;;;;;;0.80;0.70;;;;;;;19.26;37.72;95603.78;10297693;28;20050;-58
2022/04/05 01:10:11;;;;;;;0.82;0.70;;;;;;;19.24;37.72;95593.34;10297486;28;20965;-57
2022/04/05 01:15:31;;;;;;;0.93;0.50;;;;;;;19.23;37.61;95591.78;10295689;28;20491;-58
2022/04/05 01:20:51;;;;;;;1.52;0.70;;;;;;;19.22;37.78;95582.09;10290775;28;20063;-58
2022/04/05 01:26:10;;;;;;;1.23;0.60;;;;;;;19.22;37.65;95584.81;10295015;28;20058;-58
2022/04/05 01:31:29;;;;;;;0.85;0.60;;;;;;;19.20;37.63;95591.69;10292466;28;20066;-57
2022/04/05 01:36:54;;;;;;;0.80;0.63;;;;;;;19.18;37.69;95583.94;10284735;28;20059;-58
2022/04/05 01:42:14;;;;;;;0.82;0.60;;;;;;;19.17;37.56;95571.59;10292072;28;20105;-58
2022/04/05 01:47:33;;;;;;;0.52;0.52;;;;;;;19.15;37.55;95588.13;10289723;28;20525;-57
2022/04/05 01:52:53;;;;;;;1.35;0.60;;;;;;;19.13;37.63;95571.50;10288141;28;20057;-58
2022/04/05 01:58:12;;;;;;;0.60;0.50;;;;;;;19.12;37.72;95578.03;10291982;28;20117;-57
2022/04/05 02:03:31;;;;;;;0.50;0.50;;;;;;;19.11;37.69;95587.25;10291589;28;20410;-58
2022/04/05 02:08:54;;;;;;;0.85;0.63;;;;;;;19.10;37.53;95574.13;10290744;28;20081;-58
2022/04/05 02:14:15;;;;;;;0.70;0.70;;;;;;;19.08;37.67;95568.28;10289007;28;20058;-59
2022/04/05 02:19:36;;;;;;;0.60;0.60;;;;;;;19.07;37.63;95572.91;10285260;28;20049;-57
2022/04/05 02:24:57;;;;;;;0.50;0.50;;;;;;;19.06;37.54;95563.22;10254800;28;20055;-58
2022/04/05 02:30:17;;;;;;;0.70;0.70;;;;;;;19.04;37.66;95572.81;10264556;28;20444;-58
2022/04/05 02:35:38;;;;;;;2.25;0.60;;;;;;;19.04;37.67;95567.41;10289043;28;20043;-59
2022/04/05 02:40:59;;;;;;;0.50;0.50;;;;;;;19.01;37.65;95563.50;10287672;28;20062;-57
2022/04/05 02:46:22;;;;;;;0.50;0.50;;;;;;;19.01;37.70;95566.19;10287737;28;20039;-59
2022/04/05 02:51:42;;;;;;;0.70;0.57;;;;;;;19.00;37.58;95566.56;10274258;28;20054;-58
2022/04/05 02:57:09;;;;;;;0.50;0.50;;;;;;;18.98;37.52;95569.59;10274221;28;20046;-58
2022/04/05 03:02:28;;;;;;;0.50;0.50;;;;;;;18.97;37.53;95570.72;10294303;28;20510;-58
2022/04/05 03:07:49;;;;;;;0.60;0.60;;;;;;;18.96;37.71;95563.78;10285016;28;20030;-58
2022/04/05 03:13:09;;;;;;;0.68;0.60;;;;;;;18.95;37.59;95568.41;10284190;28;20090;-58
2022/04/05 03:18:29;;;;;;;0.60;0.60;;;;;;;18.94;37.66;95563.34;10285417;28;20512;-58
2022/04/05 03:23:49;;;;;;;0.52;0.52;;;;;;;18.93;37.60;95567.97;10295730;28;20482;-58
2022/04/05 03:29:09;;;;;;;0.70;0.50;;;;;;;18.92;37.62;95554.81;10288065;28;20521;-58
2022/04/05 03:34:29;;;;;;;0.75;0.50;;;;;;;18.90;37.69;95551.69;10273847;28;20046;-58
2022/04/05 03:39:50;;;;;;;0.57;0.57;;;;;;;18.89;37.57;95555.50;10276981;28;20505;-58
2022/04/05 03:45:10;;;;;;;0.75;0.60;;;;;;;18.87;37.56;95553.13;10298707;28;20039;-58
2022/04/05 03:50:31;;;;;;;0.55;0.55;;;;;;;18.88;37.69;95551.25;10274759;28;20050;-58
2022/04/05 03:55:53;;;;;;;0.40;0.40;;;;;;;18.87;37.53;95552.38;10275990;28;20058;-58
2022/04/05 04:01:14;;;;;;;0.60;0.60;;;;;;;18.87;37.63;95550.44;10274055;28;20050;-58
2022/04/05 04:06:34;;;;;;;0.50;0.50;;;;;;;18.87;37.70;95549.66;10271982;28;20074;-58
2022/04/05 04:11:54;;;;;;;0.60;0.60;;;;;;;18.86;38.19;95557.00;10284054;28;20048;-58
2022/04/05 04:17:14;;;;;;;0.45;0.45;;;;;;;18.87;38.37;95553.13;10284424;28;20035;-58
2022/04/05 04:22:34;;;;;;;0.95;0.50;;;;;;;18.89;37.95;95550.09;10282981;28;20515;-57
2022/04/05 04:27:54;;;;;;;0.90;0.70;;;;;;;18.87;38.23;95555.06;10271073;28;20055;-58
2022/04/05 04:33:13;;;;;;;1.02;0.57;;;;;;;18.88;38.21;95548.56;10286268;28;20054;-59
2022/04/05 04:38:33;;;;;;;0.50;0.50;;;;;;;18.90;38.22;95552.47;10294054;28;20055;-58
2022/04/05 04:43:53;;;;;;;0.60;0.60;;;;;;;18.93;38.28;95553.66;10284245;28;20457;-59
2022/04/05 04:49:13;;;;;;;0.75;0.60;;;;;;;18.95;38.55;95540.59;10284554;28;20082;-58
2022/04/05 04:54:32;;;;;;;0.60;0.60;;;;;;;18.98;38.76;95541.84;10302651;28;20057;-58
2022/04/05 04:59:52;;;;;;;1.92;0.70;;;;;;;19.01;38.77;95546.53;10292153;28;20051;-59
2022/04/05 05:05:15;;;;;;;2.45;0.70;;;;;;;19.04;38.82;95543.91;10292404;28;20505;-58
2022/04/05 05:10:34;;;;;;;1.00;0.60;;;;;;;19.07;38.99;95548.63;10303614;28;20043;-58
2022/04/05 05:15:54;;;;;;;1.02;0.68;;;;;;;19.09;38.97;95553.63;10292996;28;20061;-58
2022/04/05 05:21:13;;;;;;;11.32;3.08;;;;;;;19.13;38.96;95559.91;10304576;28;20549;-59
2022/04/05 05:26:32;;;;;;;17.80;3.58;;;;;;;19.17;39.18;95566.97;10287496;28;20062;-58
2022/04/05 05:31:52;;;;;;;14.82;3.55;;;;;;;19.24;38.82;95554.75;10260160;28;20680;-58
2022/04/05 05:37:12;;;;;;;13.38;3.38;;;;;;;19.31;38.81;95573.81;10287369;28;20576;-59
2022/04/05 05:42:31;;;;;;;12.20;3.50;;;;;;;19.36;38.76;95574.31;10286869;28;20550;-59
2022/04/05 05:47:51;;;;;;;15.98;3.60;;;;;;;19.39;38.69;95580.94;10287712;28;20054;-59
2022/04/05 05:53:10;;;;;;;17.00;3.88;;;;;;;19.42;38.55;95587.56;10288115;28;20058;-59
2022/04/05 05:58:30;;;;;;;15.27;4.07;;;;;;;19.43;38.56;95587.19;10299090;28;20125;-59
2022/04/05 06:03:49;;;;;;;13.95;4.13;;;;;;;19.45;38.61;95576.81;10303308;28;20059;-59
2022/04/05 06:09:09;;;;;;;14.05;4.30;;;;;;;19.46;38.46;95586.47;10289958;28;20054;-59
2022/04/05 06:14:28;;;;;;;14.50;4.00;;;;;;;19.50;38.45;95586.56;10303431;28;20050;-58
2022/04/05 06:19:47;;;;;;;14.73;4.78;;;;;;;19.50;38.61;95595.47;10288665;28;20058;-59
2022/04/05 06:25:08;;;;;;;12.48;3.97;;;;;;;19.52;38.42;95600.50;10288193;28;20059;-58
2022/04/05 06:30:29;;;;;;;10.80;3.72;;;;;;;19.53;38.45;95608.25;10290991;28;20452;-58
2022/04/05 06:35:54;;;;;;;11.50;3.90;;;;;;;19.55;38.39;95613.31;10290369;28;20540;-59
2022/04/05 06:41:14;;;;;;;13.20;3.67;;;;;;;19.55;38.38;95622.19;10287276;28;20063;-59
2022/04/05 06:46:33;;;;;;;16.15;4.10;;;;;;;19.57;38.33;95627.25;10290749;28;20479;-59
2022/04/05 06:51:53;;;;;;;9.75;3.67;;;;;;;19.56;38.25;95629.19;10302140;28;20039;-59
2022/04/05 06:57:12;;;;;;;12.20;4.00;;;;;;;19.58;38.36;95631.50;10288831;28;20127;-58
2022/04/05 07:02:31;;;;;;;9.40;3.67;;;;;;;19.58;38.21;95630.72;10289876;28;20051;-59
2022/04/05 07:07:50;;;;;;;11.30;4.07;;;;;;;19.59;38.28;95637.72;10282637;28;20046;-58
2022/04/05 07:13:10;;;;;;;12.48;3.97;;;;;;;19.59;38.22;95640.41;10302442;28;20042;-59
2022/04/05 07:18:29;;;;;;;9.82;3.53;;;;;;;19.59;38.16;95643.88;10290161;28;20055;-58
2022/04/05 07:23:48;;;;;;;13.30;3.85;;;;;;;19.59;38.19;95656.63;10301313;28;20046;-59
2022/04/05 07:29:08;;;;;;;11.15;3.40;;;;;;;19.59;38.05;95662.81;10295000;28;20047;-55
2022/04/05 07:34:27;;;;;;;10.18;4.18;;;;;;;19.59;38.00;95643.13;10277096;28;20050;-57
2022/04/05 07:39:47;;;;;;;11.38;3.85;;;;;;;19.60;38.08;95650.88;10316411;28;20055;-59
2022/04/05 07:45:08;;;;;;;10.40;3.85;;;;;;;19.60;38.35;95650.06;10285866;28;20054;-59
2022/04/05 07:50:27;;;;;;;10.73;3.92;;;;;;;19.60;38.08;95666.28;10288621;28;20062;-58
2022/04/05 07:55:46;;;;;;;8.25;4.20;;;;;;;19.61;38.24;95667.84;10296423;28;20050;-58
2022/04/05 08:01:08;;;;;;;9.73;4.13;;;;;;;19.61;38.22;95667.84;10294680;28;20051;-59
2022/04/05 08:06:28;;;;;;;13.18;4.22;;;;;;;19.59;38.23;95672.84;10284312;28;20054;-59
2022/04/05 08:11:48;;;;;;;9.27;3.45;;;;;;;19.60;38.34;95675.19;10263660;28;20067;-59
2022/04/05 08:17:08;;;;;;;10.32;3.88;;;;;;;19.60;38.54;95683.28;10264833;28;20059;-58
2022/04/05 08:22:27;;;;;;;9.57;4.20;;;;;;;19.59;38.27;95684.41;10287826;28;20110;-58
2022/04/05 08:27:48;;;;;;;15.20;6.15;;;;;;;19.59;38.48;95689.03;10293454;28;20054;-59
2022/04/05 08:33:07;;;;;;;11.15;4.43;;;;;;;19.59;39.42;95697.91;10308045;28;20065;-59
2022/04/05 08:38:28;;;;;;;15.82;5.22;;;;;;;19.60;39.67;95696.81;10316346;28;20077;-59
2022/04/05 08:43:51;;;;;;;12.77;4.80;;;;;;;19.60;39.84;95694.09;10306938;28;20490;-59
2022/04/05 08:49:11;;;;;;;9.52;5.03;;;;;;;19.59;40.04;95711.44;10295219;28;20479;-57
2022/04/05 08:54:31;;;;;;;12.65;5.00;;;;;;;19.61;39.17;95702.97;10283500;28;20042;-58
2022/04/05 08:59:50;;;;;;;10.93;4.45;;;;;;;19.61;38.24;95721.88;10289154;28;20260;-58
2022/04/05 09:05:25;;;;;;;7.57;3.95;;;;;;;19.60;37.52;95744.63;10302736;28;20038;-57
2022/04/05 09:10:49;;;;;;;7.32;3.30;;;;;;;19.59;37.22;95732.25;10290217;28;20061;-57
2022/04/05 09:16:09;;;;;;;7.15;3.03;;;;;;;19.58;36.59;95726.06;10294285;28;20054;-57
2022/04/05 09:21:48;;;;;;;5.78;3.05;;;;;;;19.56;36.05;95728.31;10305620;28;20135;-57
2022/04/05 09:27:07;;;;;;;5.10;2.80;;;;;;;19.53;35.95;95734.44;10290987;28;20051;-58
2022/04/05 09:32:36;;;;;;;4.57;2.67;;;;;;;19.50;35.77;95749.44;10293093;28;20109;-59
2022/04/05 09:38:14;;;;;;;4.50;2.72;;;;;;;19.48;35.40;95746.31;10283689;28;20059;-58
2022/04/05 09:43:33;;;;;;;4.07;2.47;;;;;;;19.45;35.51;95738.88;10293431;28;20058;-57
2022/04/05 09:49:04;;;;;;;4.57;2.28;;;;;;;19.44;35.53;95740.00;10304647;28;20054;-58
2022/04/05 09:54:28;;;;;;;4.55;2.20;;;;;;;19.43;35.57;95751.97;10291682;28;20047;-58
2022/04/05 09:59:48;;;;;;;2.65;1.73;;;;;;;19.41;35.18;95765.03;10281548;28;20062;-57
2022/04/05 10:05:10;;;;;;;2.35;1.98;;;;;;;19.37;35.06;95758.75;10290570;28;20043;-57
2022/04/05 10:10:30;;;;;;;2.80;1.80;;;;;;;19.35;34.88;95755.63;10291673;28;20061;-58
2022/04/05 10:15:51;;;;;;;1.88;1.58;;;;;;;19.34;34.90;95767.53;10305794;28;20457;-56
2022/04/05 10:21:11;;;;;;;2.38;1.50;;;;;;;19.31;34.66;95760.16;10290728;28;20051;-57
2022/04/05 10:26:33;;;;;;;2.03;1.23;;;;;;;19.30;34.57;95762.03;10290890;28;20061;-58
2022/04/05 10:32:10;;;;;;;1.65;1.25;;;;;;;19.29;34.51;95767.81;10290604;28;20055;-58
2022/04/05 10:37:35;;;;;;;1.80;1.40;;;;;;;19.26;34.16;95769.28;10280029;28;20658;-58
2022/04/05 10:42:55;;;;;;;1.48;1.23;;;;;;;19.24;34.28;95768.06;10303567;28;20105;-58
2022/04/05 10:48:20;;;;;;;1.65;1.27;;;;;;;19.24;34.27;95765.34;10289077;28;20061;-58
2022/04/05 10:54:17;;;;;;;1.20;1.10;;;;;;;19.20;34.10;95770.66;10297196;28;20055;-56
2022/04/05 10:59:20;;;;;;;1.33;1.20;;;;;;;19.19;34.07;95776.41;10287428;28;20121;-58
2022/04/05 11:04:39;;;;;;;1.30;1.00;;;;;;;19.16;33.93;95770.56;10287625;28;20051;-57
2022/04/05 11:10:01;;;;;;;1.27;0.95;;;;;;;19.16;34.05;95762.47;10274584;28;20062;-57
2022/04/05 11:15:21;;;;;;;1.42;1.10;;;;;;;19.14;33.96;95764.72;10288363;28;20463;-57
2022/04/05 11:20:41;;;;;;;1.58;0.93;;;;;;;19.13;34.17;95755.06;10300548;28;20130;-58
2022/04/05 11:26:23;;;;;;;1.10;0.93;;;;;;;19.12;33.78;95764.28;10286476;28;20054;-57
2022/04/05 11:31:43;;;;;;;0.82;0.82;;;;;;;19.11;33.84;95754.63;10281315;28;20417;-56
2022/04/05 11:37:04;;;;;;;1.10;0.90;;;;;;;19.10;33.91;95760.38;10275569;28;20055;-58
2022/04/05 11:42:23;;;;;;;0.80;0.80;;;;;;;19.07;34.06;95751.06;10285260;28;20059;-58
2022/04/05 11:47:54;;;;;;;0.63;0.63;;;;;;;19.07;34.13;95745.66;10284467;28;20044;-57
2022/04/05 11:53:21;;;;;;;1.00;0.90;;;;;;;19.05;33.93;95747.94;10281167;28;20497;-59
2022/04/05 11:58:43;;;;;;;0.90;0.90;;;;;;;19.05;33.98;95744.41;10267157;28;20062;-57
2022/04/05 12:04:08;;;;;;;2.53;1.00;;;;;;;19.05;34.18;95763.31;10286769;28;20087;-56
2022/04/05 12:09:28;;;;;;;0.80;0.80;;;;;;;19.02;34.48;95754.00;10280300;28;20301;-58
2022/04/05 12:14:47;;;;;;;0.82;0.80;;;;;;;19.00;35.09;95761.66;10285996;28;20050;-59
2022/04/05 12:20:07;;;;;;;1.08;0.75;;;;;;;18.99;35.01;95757.38;10288556;28;20050;-58
2022/04/05 12:25:27;;;;;;;1.10;0.88;;;;;;;19.00;35.26;95768.97;10279737;28;20059;-58
2022/04/05 12:30:46;;;;;;;2.08;1.15;;;;;;;19.00;35.50;95763.59;10286038;28;20511;-58
2022/04/05 12:36:06;;;;;;;2.25;1.08;;;;;;;19.00;35.46;95760.88;10286455;28;20055;-58
2022/04/05 12:41:26;;;;;;;1.63;1.20;;;;;;;18.99;35.59;95759.31;10295364;28;20046;-58
2022/04/05 12:46:53;;;;;;;2.47;1.30;;;;;;;18.99;35.77;95762.00;10296054;28;20494;-59
2022/04/05 12:52:15;;;;;;;2.83;1.73;;;;;;;18.98;36.02;95757.75;10283425;28;20062;-58
2022/04/05 12:57:38;;;;;;;4.45;1.40;;;;;;;18.98;36.11;95757.75;10276606;28;20050;-58
2022/04/05 13:03:08;;;;;;;6.97;1.63;;;;;;;18.96;36.34;95753.47;10263126;28;20101;-57
2022/04/05 13:08:31;;;;;;;5.88;1.83;;;;;;;18.97;36.50;95735.34;10299374;28;20505;-58
2022/04/05 13:14:15;;;;;;;5.45;2.10;;;;;;;18.96;36.67;95745.38;10293066;28;20047;-58
2022/04/05 13:19:35;;;;;;;6.03;2.30;;;;;;;18.96;36.78;95748.06;10295368;28;20058;-58
2022/04/05 13:24:57;;;;;;;7.13;2.45;;;;;;;18.96;36.93;95755.38;10282248;28;20050;-57
2022/04/05 13:30:17;;;;;;;6.57;2.40;;;;;;;18.96;37.07;95747.28;10307093;28;20043;-57
2022/04/05 13:35:37;;;;;;;8.05;2.83;;;;;;;18.95;37.12;95734.91;10294368;28;20065;-57
2022/04/05 13:40:56;;;;;;;7.50;2.63;;;;;;;18.95;37.17;95735.72;10287789;28;20065;-57
2022/04/05 13:46:15;;;;;;;6.72;2.88;;;;;;;18.95;37.29;95740.31;10306905;28;20173;-56
2022/04/05 13:51:36;;;;;;;8.27;2.75;;;;;;;18.95;37.42;95743.00;10293920;28;20055;-58
2022/04/05 13:56:55;;;;;;;7.30;2.63;;;;;;;18.94;37.55;95752.25;10293884;28;20058;-58
2022/04/05 14:02:17;;;;;;;10.18;3.20;;;;;;;18.95;37.65;95751.09;10306579;28;20043;-57
2022/04/05 14:07:37;;;;;;;7.00;2.80;;;;;;;18.93;37.56;95739.88;10254941;28;20051;-58
2022/04/05 14:12:56;;;;;;;7.75;2.78;;;;;;;18.93;37.72;95743.38;10283029;28;20043;-58
2022/04/05 14:18:16;;;;;;;9.07;2.97;;;;;;;18.94;37.73;95741.47;10274204;28;20050;-59
2022/04/05 14:23:35;;;;;;;6.10;2.88;;;;;;;18.94;38.32;95741.47;10300273;28;20056;-59
2022/04/05 14:28:56;;;;;;;6.30;2.70;;;;;;;18.95;38.74;95732.22;10284963;28;20092;-59
2022/04/05 14:34:15;;;;;;;9.45;2.95;;;;;;;18.99;39.41;95726.91;10295614;28;20055;-58
2022/04/05 14:39:35;;;;;;;6.22;2.50;;;;;;;19.00;39.32;95737.38;10289289;28;20520;-57
2022/04/05 14:44:55;;;;;;;8.45;2.80;;;;;;;19.00;39.57;95745.47;10286542;28;20124;-54
2022/04/05 14:50:14;;;;;;;7.22;2.28;;;;;;;19.03;40.19;95744.75;10281750;28;20057;-51
2022/04/05 14:55:35;;;;;;;8.75;2.72;;;;;;;19.06;40.69;95740.59;10283261;28;20105;-56
2022/04/05 15:00:55;;;;;;;5.30;2.47;;;;;;;19.10;41.10;95752.28;10282283;28;20716;-60
2022/04/05 15:06:15;;;;;;;9.20;2.28;;;;;;;19.12;41.09;95747.31;10285516;28;20454;-54
2022/04/05 15:11:34;;;;;;;6.32;2.30;;;;;;;19.15;41.21;95750.13;10282551;28;20062;-54
2022/04/05 15:16:54;;;;;;;5.57;2.30;;;;;;;19.17;41.31;95753.25;10283361;28;20050;-62
2022/04/05 15:22:14;;;;;;;5.55;1.95;;;;;;;19.20;41.25;95745.59;10295601;28;20129;-61
2022/04/05 15:27:34;;;;;;;6.75;2.05;;;;;;;19.24;41.37;95751.84;10283569;28;20055;-64
2022/04/05 15:32:53;;;;;;;6.35;2.08;;;;;;;19.27;41.36;95751.19;10288134;28;20059;-63
2022/04/05 15:38:13;;;;;;;5.38;2.20;;;;;;;19.29;41.15;95746.22;10294310;28;20058;-62
2022/04/05 15:43:32;;;;;;;5.55;1.98;;;;;;;19.32;40.76;95743.56;10278806;28;20462;-58
2022/04/05 15:48:53;;;;;;;6.50;1.88;;;;;;;19.35;40.95;95742.13;10266786;28;20051;-60
2022/04/05 15:54:15;;;;;;;5.30;1.77;;;;;;;19.41;41.03;95748.03;10281998;28;20109;-53
2022/04/05 15:59:35;;;;;;;4.72;1.58;;;;;;;19.45;41.21;95746.22;10277989;28;20186;-61
2022/04/05 16:04:55;;;;;;;4.15;1.92;;;;;;;19.49;41.53;95761.38;10297257;28;20051;-53
2022/04/05 16:10:15;;;;;;;4.93;1.70;;;;;;;19.54;41.58;95773.81;10285300;28;20406;-50
2022/04/05 16:15:34;;;;;;;5.20;1.95;;;;;;;19.56;41.74;95761.53;10278846;28;20051;-52
2022/04/05 16:20:54;;;;;;;4.20;1.50;;;;;;;19.63;41.70;95770.94;10287239;28;20045;-57
2022/04/05 16:26:14;;;;;;;3.80;1.77;;;;;;;19.67;41.42;95761.00;10281647;28;20510;-58
2022/04/05 16:31:34;;;;;;;5.07;1.60;;;;;;;19.71;41.42;95756.47;10290076;28;20042;-60
2022/04/05 16:36:53;;;;;;;4.50;1.80;;;;;;;19.74;41.19;95756.59;10296023;28;20047;-60
2022/04/05 16:42:13;;;;;;;3.83;1.52;;;;;;;19.79;41.23;95752.06;10281801;28;20047;-61
2022/04/05 16:47:33;;;;;;;5.32;1.55;;;;;;;19.83;41.21;95756.41;10288065;28;20054;-61
2022/04/05 16:52:53;;;;;;;3.13;1.40;;;;;;;19.87;41.25;95754.56;10291444;28;20062;-61
2022/04/05 16:58:13;;;;;;;3.28;1.88;;;;;;;19.90;41.09;95758.50;10289663;28;20055;-61
2022/04/05 17:03:32;;;;;;;1.92;1.20;;;;;;;19.92;41.04;95748.91;10302871;28;20050;-61
2022/04/05 17:08:55;;;;;;;2.33;1.40;;;;;;;19.95;41.01;95750.91;10292962;28;20262;-60
2022/04/05 17:14:15;;;;;;;3.67;1.73;;;;;;;19.99;40.82;95745.56;10287790;28;20046;-56
2022/04/05 17:19:35;;;;;;;2.15;1.27;;;;;;;20.02;40.73;95749.50;10294223;28;20511;-59
2022/04/05 17:24:55;;;;;;;1.92;1.30;;;;;;;20.04;40.78;95763.44;10301573;28;20059;-60
2022/04/05 17:30:16;;;;;;;3.75;1.52;;;;;;;20.06;40.80;95759.25;10293065;28;20050;-60
2022/04/05 17:35:36;;;;;;;2.95;1.35;;;;;;;20.05;40.69;95754.97;10292107;28;20051;-60
2022/04/05 17:40:55;;;;;;;3.67;1.40;;;;;;;20.07;40.91;95752.72;10290202;28;20501;-59
2022/04/05 17:46:15;;;;;;;4.60;1.60;;;;;;;20.10;40.90;95762.81;10290690;28;20049;-59
2022/04/05 17:51:35;;;;;;;3.35;1.55;;;;;;;20.11;40.91;95771.69;10287349;28;20542;-57
2022/04/05 17:56:56;;;;;;;2.45;1.20;;;;;;;20.12;41.16;95775.97;10297228;28;20481;-59
2022/04/05 18:02:16;;;;;;;3.05;1.40;;;;;;;20.13;41.19;95788.34;10287449;28;20050;-58
2022/04/05 18:07:37;;;;;;;3.38;1.40;;;;;;;20.14;41.27;95801.53;10300437;28;20098;-58
2022/04/05 18:13:01;;;;;;;2.67;1.40;;;;;;;20.16;41.41;95806.59;10285079;28;20046;-58
2022/04/05 18:18:21;;;;;;;2.78;1.40;;;;;;;20.16;41.19;95806.59;10297425;28;20501;-59
2022/04/05 18:23:42;;;;;;;3.25;1.10;;;;;;;20.15;41.41;95802.31;10291021;28;20127;-51
2022/04/05 18:29:02;;;;;;;3.33;1.48;;;;;;;20.16;41.46;95809.28;10288378;28;20521;-54
2022/04/05 18:34:21;;;;;;;2.05;1.17;;;;;;;20.16;41.60;95814.69;10292030;28;20043;-53
2022/04/05 18:39:42;;;;;;;1.60;0.98;;;;;;;20.18;41.50;95817.06;10290627;28;20113;-51
2022/04/05 18:45:07;;;;;;;5.30;1.27;;;;;;;20.18;41.54;95817.84;10284641;28;20039;-56
2022/04/05 18:50:26;;;;;;;1.48;0.95;;;;;;;20.17;41.52;95810.88;10289080;28;20046;-53
2022/04/05 18:55:47;;;;;;;3.65;1.48;;;;;;;20.18;41.34;95807.00;10291144;28;20047;-53
2022/04/05 19:01:08;;;;;;;4.57;1.08;;;;;;;20.18;41.32;95817.84;10292680;28;20050;-56
2022/04/05 19:06:28;;;;;;;5.10;1.23;;;;;;;20.20;41.31;95826.38;10286321;28;20130;-55
2022/04/05 19:11:48;;;;;;;5.25;1.45;;;;;;;20.19;41.34;95830.22;10298437;28;20580;-55
2022/04/05 19:17:08;;;;;;;2.42;1.15;;;;;;;20.19;41.35;95818.59;10288515;28;20061;-55
2022/04/05 19:22:29;;;;;;;1.88;1.17;;;;;;;20.18;41.18;95825.94;10290276;28;20046;-56
2022/04/05 19:27:49;;;;;;;2.55;1.13;;;;;;;20.16;41.22;95828.22;10285504;28;20721;-56
2022/04/05 19:33:08;;;;;;;2.30;1.40;;;;;;;20.16;41.25;95820.09;10283140;28;20054;-55
2022/04/05 19:38:28;;;;;;;1.45;1.08;;;;;;;20.15;41.22;95829.38;10287105;28;20065;-56
2022/04/05 19:43:48;;;;;;;1.20;1.10;;;;;;;20.16;41.19;95825.50;10288907;28;20171;-55
2022/04/05 19:49:09;;;;;;;1.55;1.10;;;;;;;20.14;41.13;95833.19;10301377;28;20046;-55
2022/04/05 19:54:29;;;;;;;3.45;1.40;;;;;;;20.14;41.18;95823.16;10293111;28;20137;-55
2022/04/05 19:59:49;;;;;;;4.30;1.95;;;;;;;20.14;41.22;95819.66;10274362;28;20058;-53
2022/04/05 20:05:11;;;;;;;3.17;1.60;;;;;;;20.12;41.14;95824.66;10280507;28;20057;-57
2022/04/05 20:10:31;;;;;;;5.00;1.50;;;;;;;20.12;41.11;95828.13;10286154;28;20082;-56
2022/04/05 20:15:50;;;;;;;3.45;1.50;;;;;;;20.12;40.89;95830.84;10281954;28;20070;-54
2022/04/05 20:21:10;;;;;;;2.80;1.40;;;;;;;20.11;41.06;95829.28;10302504;28;20451;-55
2022/04/05 20:26:30;;;;;;;3.30;1.30;;;;;;;20.10;40.97;95835.03;10298165;28;20051;-56
2022/04/05 20:31:50;;;;;;;3.30;1.52;;;;;;;20.08;40.83;95840.78;10292034;28;20097;-56
2022/04/05 20:37:10;;;;;;;3.35;1.30;;;;;;;20.07;40.91;95831.13;10294115;28;20057;-54
2022/04/05 20:42:29;;;;;;;2.88;1.35;;;;;;;20.06;40.73;95831.47;10290934;28;20495;-53
2022/04/05 20:47:49;;;;;;;4.95;1.23;;;;;;;20.06;40.85;95829.53;10288162;28;20074;-53
2022/04/05 20:53:08;;;;;;;2.65;1.20;;;;;;;20.05;40.75;95829.88;10292445;28;20205;-56
2022/04/05 20:58:30;;;;;;;2.78;1.30;;;;;;;20.05;40.75;95827.19;10285091;28;20054;-56
2022/04/05 21:03:49;;;;;;;2.40;1.10;;;;;;;20.03;40.92;95816.72;10283519;28;20043;-53
2022/04/05 21:09:09;;;;;;;3.80;1.17;;;;;;;20.02;40.81;95811.66;10291653;28;20077;-53
2022/04/05 21:14:28;;;;;;;4.07;1.60;;;;;;;20.01;40.88;95815.50;10304654;28;20047;-56
2022/04/05 21:19:49;;;;;;;2.17;1.10;;;;;;;20.00;40.74;95814.72;10288750;28;20062;-56
2022/04/05 21:25:09;;;;;;;2.58;1.33;;;;;;;19.99;40.78;95821.25;10288637;28;20121;-56
2022/04/05 21:30:30;;;;;;;2.70;1.30;;;;;;;19.98;40.79;95819.69;10290953;28;20498;-55
2022/04/05 21:35:51;;;;;;;1.75;1.10;;;;;;;19.97;40.72;95804.59;10284423;28;20074;-54
2022/04/05 21:41:11;;;;;;;2.70;1.25;;;;;;;19.96;40.64;95805.75;10295362;28;20054;-56
2022/04/05 21:46:30;;;;;;;2.22;1.02;;;;;;;19.94;40.54;95811.50;10294160;28;20106;-55
2022/04/05 21:51:50;;;;;;;2.42;1.33;;;;;;;19.92;40.48;95816.47;10293762;28;20648;-56
2022/04/05 21:57:11;;;;;;;2.55;1.33;;;;;;;19.92;40.60;95808.34;10300827;28;20084;-57
2022/04/05 22:02:30;;;;;;;2.53;1.02;;;;;;;19.90;40.49;95805.22;10303558;28;20042;-55
2022/04/05 22:07:50;;;;;;;2.22;0.90;;;;;;;19.90;40.39;95786.31;10288416;28;20051;-56
2022/04/05 22:13:10;;;;;;;3.00;1.23;;;;;;;19.89;40.39;95779.31;10303404;28;20050;-56
2022/04/05 22:18:30;;;;;;;1.38;0.88;;;;;;;19.87;40.36;95791.63;10296920;28;20043;-57
2022/04/05 22:23:49;;;;;;;2.90;1.17;;;;;;;19.86;40.54;95793.53;10287975;28;20047;-56
2022/04/05 22:29:09;;;;;;;2.28;1.10;;;;;;;19.85;40.39;95805.47;10292920;28;20042;-56
2022/04/05 22:34:28;;;;;;;1.77;0.90;;;;;;;19.84;40.41;95809.31;10288783;28;20066;-57
2022/04/05 22:39:48;;;;;;;1.58;1.00;;;;;;;19.83;40.63;95826.66;10290902;28;20105;-53
2022/04/05 22:45:08;;;;;;;1.85;1.10;;;;;;;19.82;40.43;95811.59;10293886;28;20038;-55
2022/04/05 22:50:27;;;;;;;1.58;1.00;;;;;;;19.82;40.49;95821.63;10287348;28;20066;-54
2022/04/05 22:55:46;;;;;;;2.92;0.98;;;;;;;19.79;40.56;95820.38;10297966;28;20054;-56
2022/04/05 23:01:06;;;;;;;1.52;0.80;;;;;;;19.78;40.39;95820.72;10287190;28;20101;-56
2022/04/05 23:06:25;;;;;;;1.38;0.73;;;;;;;19.77;40.62;95811.06;10300510;28;20110;-56
2022/04/05 23:11:46;;;;;;;2.72;0.93;;;;;;;19.75;40.52;95806.00;10303033;28;20062;-56
2022/04/05 23:17:06;;;;;;;1.60;0.90;;;;;;;19.74;40.51;95804.47;10302394;28;20043;-53
2022/04/05 23:22:25;;;;;;;2.83;0.90;;;;;;;19.73;40.50;95809.06;10287193;28;20062;-56
2022/04/05 23:27:45;;;;;;;3.53;0.80;;;;;;;19.72;40.34;95818.31;10294426;28;20055;-54
2022/04/05 23:33:04;;;;;;;1.17;0.70;;;;;;;19.70;40.36;95825.19;10288789;28;20722;-56
2022/04/05 23:38:25;;;;;;;1.17;0.80;;;;;;;19.70;40.29;95822.47;10300590;28;20039;-55
2022/04/05 23:43:44;;;;;;;1.00;0.70;;;;;;;19.69;40.44;95821.66;10283051;28;20046;-56
2022/04/05 23:49:04;;;;;;;1.17;0.90;;;;;;;19.68;40.44;95800.41;10287713;28;20039;-57
2022/04/05 23:54:24;;;;;;;3.10;0.82;;;;;;;19.66;40.43;95789.16;10284791;28;20051;-53
2022/04/05 23:59:44;;;;;;;0.90;0.70;;;;;;;19.65;40.15;95793.78;10283792;28;20137;-56
